AirNav   Phillips 66 Aviation Fuel
 
 892 users online  

Y71 Elgin Municipal Airport
Elgin, North Dakota, USA

GOING TO ELGIN?


FAA INFORMATION EFFECTIVE 20 JUNE 2019

Location

FAA Identifier: Y71
Lat/Long: 46-22-57.9150N / 101-50-41.6500W
46-22.965250N / 101-50.694167W
46.3827542 / -101.8449028
(estimated)
Elevation: 2355 ft. / 717.8 m (surveyed)
Variation: 10E (1985)
From city: 1 mile S of ELGIN, ND
Time zone: UTC -6 (UTC -7 during Standard Time)
Zip code: 58533

Airport Operations

Airport use: Open to the public
Activation date: 08/1979
Control tower: no
ARTCC: MINNEAPOLIS CENTER
FSS: GRAND FORKS FLIGHT SERVICE STATION
NOTAMs facility: GFK (NOTAM-D service available)
Attendance: UNATNDD
Wind indicator: lighted
Segmented circle: no

Airport Communications

CTAF: 122.9

Nearby radio navigation aids

VOR radial/distance  VOR name  Freq  Var
LEMr008/(29.8)LEMMON VOR111.4013E

Airport Services

Parking: tiedowns
Airframe service: NONE
Powerplant service: NONE
Bottled oxygen: NONE
Bulk oxygen: NONE

Runway Information

Runway 12/30

Dimensions: 2842 x 120 ft. / 866 x 37 m
Surface: turf, in fair condition
RY SURFACE CLUMPY & ROUGH.
Gradient: SE
RUNWAY 12  RUNWAY 30
Latitude: 46-23.135167N46-22.795333N
Longitude: 101-50.926167W101-50.462167W
Elevation: 2343.0 ft.2355.0 ft.
Traffic pattern: leftleft
Runway heading: 127 magnetic, 137 true307 magnetic, 317 true
Markings: nonenone
Runway end identifier lights: nono
Obstructions: 4 ft. fence, 100 ft. from runway, 125 ft. of centerline, 25:1 slope to clear
RY 12, 13 FT DIRT ROAD 300 FT FM THLD ON CL EXTNDD; APCH RATIO 25:1. 120 FT PLINE 3,800 FT FM THLD ON CL; APCH RATIO 31:1. 7 FT CORN FIELD 100 FT FM THLD MAY-NOV.
none

Airport Ownership and Management from official FAA records

Ownership: Publicly-owned
Owner: ELGIN ARPT AUTHORITY
P.O. BOX 426
ELGIN, ND 58533
Phone 701-584-3001
Manager: AARON LEVORSEN
7125 67TH AVE SW
ELGIN, ND 58533
Phone 701-220-3442
OR RON WELKUM 701-594-2988/2986.

Airport Operational Statistics

Aircraft based on the field: 2
Single engine airplanes: 2
    
Aircraft operations: 210/year *
48% transient general aviation
24% military
19% local general aviation
10% air taxi
* for 12-month period ending 10 July 2018

Additional Remarks

CONFIRM SNOW REMOVAL; ON REQUEST ONLY IN WINTER MOS WITH AMGR BEFORE USE 701-584-3442.
NO LINE-OF-SIGHT BTN RWYS 12 & 30 BGNG 500'FM RWY 12 END & 1000'FM RWY 30 END TO A HGT OF 20' MID-CNTR.
RY 30 -10 FT DROPOFF 100 FT FROM THR OUTBOUND.
FOR CD CTC MINNEAPOLIS ARTCC AT 651-463-5588.

Instrument Procedures

There are no published instrument procedures at Y71.

Some nearby airports with instrument procedures:

D57 - Glen Ullin Regional Airport (26 nm N)
KLEM - Lemmon Municipal Airport (30 nm S)
KHEI - Hettinger Municipal Airport (40 nm SW)
Y19 - Mandan Municipal Airport (46 nm NE)
KDIK - Dickinson - Theodore Roosevelt Regional Airport (47 nm NW)
 
Loc | Ops | Rwys | IFR | FBO | Links
Com | Nav | Svcs | Stats | Notes

Bismarck Aero Center
AirBoss

 
Area around Y71 (Elgin Municipal Airport)
 
Road maps at: MapQuest Bing Google
 
Aerial photo
WARNING: Photo may not be current or correct
Aerial photo of Y71 (Elgin Municipal Airport)
Do you have a better or more recent aerial photo of Elgin Municipal Airport that you would like to share? If so, please send us your photo.

 
Sectional chart

 
Airport distance calculator
Flying to Elgin Municipal Airport? Find the distance to fly.

From to Y71

Sunrise and sunset
Times for 24-Jun-2019
 Local
(UTC-6)
 Zulu
(UTC)
Morning civil twilight04:1810:18
Sunrise04:5710:57
Sunset20:4302:43
Evening civil twilight21:2203:22

Current date and time
Zulu (UTC)  25-Jun-2019 03:00:49
Local (UTC-6)  24-Jun-2019 21:00:49
 
METAR
KD57 
26nm N 
250255Z AUTO 32006KT 10SM 14/10 A2972 RMK AO2 PWINO
KLEM 
30nm SW 
SuperAWOS
250235Z AUTO 00000KT 10SM 13/12 A2973
KHEI 
40nm SW 
250253Z AUTO 34009G19KT 10SM FEW038 SCT060 13/11 A2980 RMK AO2 SLP085 60000 T01330106 53008
KY19 
46nm NE 
250255Z AUTO 30007KT 10SM CLR 14/11 A2972 RMK AO2
KDIK 
47nm NW 
250156Z AUTO 27009KT 10SM CLR 14/12 A2974 RMK AO2 SLP065 T01390122
TAF
KDIK 
47nm NW 
250114Z 2501/2524 27009KT P6SM VCSH SCT070 FM250200 28011KT P6SM FEW035 FEW200 FM251800 28011G19KT P6SM SKC
NOTAMs
Click for the latest NOTAMs
NOTAMs are issued by the DoD/FAA and will open in a separate window not controlled by AirNav.

 

 
 

Would you like to see your business listed on this page?

 If your business provides an interesting product or service to pilots, flight crews, aircraft, or users of the Elgin Municipal Airport, you should consider listing it here.  To start the listing process, click on the button below
 
Add a business
 

Other Pages about Elgin Municipal Airport

Update a link
 
Copyright © AirNav, LLC. All rights reserved. Privacy Policy  Contact